createdAt,value
2023-05-20T00:00:05.811Z,7.89
2023-05-20T00:00:17.641Z,7.89
2023-05-20T00:00:29.825Z,7.88
2023-05-20T00:00:41.512Z,7.89
2023-05-20T00:00:52.277Z,7.89
2023-05-20T00:01:04.732Z,7.89
2023-05-20T00:01:16.467Z,7.88
2023-05-20T00:01:28.390Z,7.88
2023-05-20T00:01:39.147Z,7.86
2023-05-20T00:01:51.342Z,7.86
2023-05-20T00:02:02.074Z,7.86
2023-05-20T00:02:14.534Z,7.86
2023-05-20T00:02:26.415Z,7.85
2023-05-20T00:02:37.373Z,7.85
2023-05-20T00:02:48.258Z,7.85
2023-05-20T00:02:59.078Z,7.85
2023-05-20T00:03:10.869Z,7.85
2023-05-20T00:03:21.873Z,7.84
2023-05-20T00:03:33.869Z,7.84
2023-05-20T00:03:44.729Z,7.82
2023-05-20T00:03:57.344Z,7.84
2023-05-20T00:04:08.349Z,7.84
2023-05-20T00:04:19.236Z,7.84
2023-05-20T00:04:32.556Z,7.82
2023-05-20T00:04:44.988Z,7.81
2023-05-20T00:04:57.910Z,7.82
2023-05-20T00:05:09.660Z,7.82
2023-05-20T00:05:20.438Z,7.81
2023-05-20T00:05:32.862Z,7.82
2023-05-20T00:05:44.590Z,7.81
2023-05-20T00:05:56.391Z,7.79
2023-05-20T00:06:08.795Z,7.81
2023-05-20T00:06:19.505Z,7.81
2023-05-20T00:06:31.190Z,7.81
2023-05-20T00:06:43.649Z,7.79
2023-05-20T00:06:54.461Z,7.77
2023-05-20T00:07:05.182Z,7.79
2023-05-20T00:07:15.914Z,7.79
2023-05-20T00:07:26.731Z,7.77
2023-05-20T00:07:38.419Z,7.77
2023-05-20T00:07:49.180Z,7.79
2023-05-20T00:08:00.976Z,7.81
2023-05-20T00:08:11.817Z,7.81
2023-05-20T00:08:25.009Z,7.81
2023-05-20T00:08:36.694Z,7.82
2023-05-20T00:08:47.460Z,7.81
2023-05-20T00:08:58.244Z,7.82
2023-05-20T00:09:09.920Z,7.82
2023-05-20T00:09:20.913Z,7.82
2023-05-20T00:09:31.660Z,7.82
2023-05-20T00:09:42.458Z,7.84
2023-05-20T00:09:56.636Z,7.82
2023-05-20T00:10:07.407Z,7.82
2023-05-20T00:10:19.804Z,7.82
2023-05-20T00:10:31.458Z,7.84
2023-05-20T00:10:43.194Z,7.84
2023-05-20T00:10:55.582Z,7.84
2023-05-20T00:11:08.745Z,7.84
2023-05-20T00:11:19.491Z,7.84
2023-05-20T00:11:30.187Z,7.82
2023-05-20T00:11:40.913Z,7.84
2023-05-20T00:11:51.676Z,7.84
2023-05-20T00:12:02.405Z,7.85
2023-05-20T00:12:13.155Z,7.84
2023-05-20T00:12:23.923Z,7.84
2023-05-20T00:12:35.640Z,7.85
2023-05-20T00:12:47.301Z,7.84
2023-05-20T00:12:58.051Z,7.84
2023-05-20T00:13:08.756Z,7.84
2023-05-20T00:13:21.186Z,7.84
2023-05-20T00:13:31.913Z,7.84
2023-05-20T00:13:44.374Z,7.84
2023-05-20T00:13:55.094Z,7.82
2023-05-20T00:14:05.795Z,7.84
2023-05-20T00:14:18.219Z,7.84
2023-05-20T00:14:28.924Z,7.84
2023-05-20T00:14:40.586Z,7.84
2023-05-20T00:14:53.775Z,7.82
2023-05-20T00:15:05.218Z,7.81
2023-05-20T00:15:15.967Z,7.82
2023-05-20T00:15:27.653Z,7.84
2023-05-20T00:15:39.351Z,7.82
2023-05-20T00:15:50.054Z,7.82
2023-05-20T00:16:02.482Z,7.82
2023-05-20T00:16:13.212Z,7.82
2023-05-20T00:16:24.051Z,7.84
2023-05-20T00:16:35.817Z,7.82
2023-05-20T00:16:47.571Z,7.82
2023-05-20T00:16:59.321Z,7.82
2023-05-20T00:17:10.126Z,7.82
2023-05-20T00:17:20.822Z,7.81
2023-05-20T00:17:31.650Z,7.82
2023-05-20T00:17:43.379Z,7.82
2023-05-20T00:17:55.046Z,7.82
2023-05-20T00:18:05.770Z,7.82
2023-05-20T00:18:16.509Z,7.82
2023-05-20T00:18:28.463Z,7.82
2023-05-20T00:18:39.184Z,7.82
2023-05-20T00:18:50.869Z,7.82
2023-05-20T00:19:01.616Z,7.81
2023-05-20T00:19:13.817Z,7.81
2023-05-20T00:19:24.643Z,7.79
2023-05-20T00:19:35.421Z,7.81
2023-05-20T00:19:47.831Z,7.81
2023-05-20T00:19:59.524Z,7.82
2023-05-20T00:20:10.211Z,7.81
2023-05-20T00:20:20.897Z,7.79
2023-05-20T00:20:33.146Z,7.81
2023-05-20T00:20:44.805Z,7.81
2023-05-20T00:20:58.517Z,7.81
2023-05-20T00:21:10.215Z,7.81
2023-05-20T00:21:22.410Z,7.79
2023-05-20T00:21:33.113Z,7.81
2023-05-20T00:21:45.037Z,7.81
2023-05-20T00:21:56.713Z,7.79
2023-05-20T00:22:07.393Z,7.81
2023-05-20T00:22:18.128Z,7.79
2023-05-20T00:22:28.831Z,7.81
2023-05-20T00:22:40.524Z,7.81
2023-05-20T00:22:52.241Z,7.81
2023-05-20T00:23:02.978Z,7.79
2023-05-20T00:23:13.698Z,7.81
2023-05-20T00:23:25.425Z,7.79
2023-05-20T00:23:37.084Z,7.81
2023-05-20T00:23:50.272Z,7.79
2023-05-20T00:24:00.946Z,7.79
2023-05-20T00:24:12.607Z,7.81
2023-05-20T00:24:24.807Z,7.81
2023-05-20T00:24:37.203Z,7.82
2023-05-20T00:24:48.909Z,7.82
2023-05-20T00:24:59.678Z,7.82
2023-05-20T00:25:12.060Z,7.82
2023-05-20T00:25:22.748Z,7.81
2023-05-20T00:25:33.736Z,7.81
2023-05-20T00:25:44.494Z,7.81
2023-05-20T00:25:57.802Z,7.79
2023-05-20T00:26:10.780Z,7.79
2023-05-20T00:26:22.497Z,7.79
2023-05-20T00:26:35.669Z,7.81
2023-05-20T00:26:47.860Z,7.77
2023-05-20T00:26:59.533Z,7.81
2023-05-20T00:27:11.253Z,7.79
2023-05-20T00:27:21.977Z,7.79
2023-05-20T00:27:34.848Z,7.77
2023-05-20T00:27:46.550Z,7.77
2023-05-20T00:27:57.247Z,7.77
2023-05-20T00:28:09.012Z,7.77
2023-05-20T00:28:20.707Z,7.76
2023-05-20T00:28:31.448Z,7.76
2023-05-20T00:28:42.136Z,7.77
2023-05-20T00:28:55.760Z,7.76
2023-05-20T00:29:06.474Z,7.74
2023-05-20T00:29:18.198Z,7.74
2023-05-20T00:29:29.871Z,7.74
2023-05-20T00:29:40.623Z,7.76
2023-05-20T00:29:51.338Z,7.76
2023-05-20T00:30:03.046Z,7.73
2023-05-20T00:30:14.746Z,7.73
2023-05-20T00:30:25.496Z,7.73
2023-05-20T00:30:37.888Z,7.73
2023-05-20T00:30:49.831Z,7.73
2023-05-20T00:31:01.505Z,7.73
2023-05-20T00:31:13.709Z,7.71
2023-05-20T00:31:26.175Z,7.73
2023-05-20T00:31:36.918Z,7.70
2023-05-20T00:31:48.935Z,7.71
2023-05-20T00:31:59.728Z,7.70
2023-05-20T00:32:10.544Z,7.70
2023-05-20T00:32:22.793Z,7.70
2023-05-20T00:32:33.508Z,7.69
2023-05-20T00:32:44.258Z,7.70
2023-05-20T00:32:56.534Z,7.69
2023-05-20T00:33:08.742Z,7.69
2023-05-20T00:33:19.470Z,7.69
2023-05-20T00:33:31.111Z,7.69
2023-05-20T00:33:41.836Z,7.69
2023-05-20T00:33:54.230Z,7.67
2023-05-20T00:34:06.422Z,7.69
2023-05-20T00:34:17.152Z,7.67
2023-05-20T00:34:27.856Z,7.67
2023-05-20T00:34:40.252Z,7.66
2023-05-20T00:34:52.413Z,7.63
2023-05-20T00:35:03.207Z,7.66
2023-05-20T00:35:15.640Z,7.66
2023-05-20T00:35:27.375Z,7.63
2023-05-20T00:35:39.818Z,7.66
2023-05-20T00:35:50.526Z,7.66
2023-05-20T00:36:01.220Z,7.66
2023-05-20T00:36:12.921Z,7.63
2023-05-20T00:36:23.674Z,7.66
2023-05-20T00:36:34.466Z,7.62
2023-05-20T00:36:45.170Z,7.62
2023-05-20T00:36:55.942Z,7.62
2023-05-20T00:37:08.113Z,7.62
2023-05-20T00:37:19.819Z,7.62
2023-05-20T00:37:31.480Z,7.63
2023-05-20T00:37:43.178Z,7.62
2023-05-20T00:37:55.607Z,7.62
2023-05-20T00:38:08.270Z,7.62
2023-05-20T00:38:19.971Z,7.62
2023-05-20T00:38:30.657Z,7.62
2023-05-20T00:38:41.362Z,7.60
2023-05-20T00:38:52.058Z,7.60
2023-05-20T00:39:02.765Z,7.60
2023-05-20T00:39:15.233Z,7.58
2023-05-20T00:39:25.992Z,7.57
2023-05-20T00:39:37.708Z,7.58
2023-05-20T00:39:49.386Z,7.58
2023-05-20T00:40:02.294Z,7.57
2023-05-20T00:40:15.766Z,7.58
2023-05-20T00:40:28.037Z,7.57
2023-05-20T00:40:38.737Z,7.55
2023-05-20T00:40:51.904Z,7.57
2023-05-20T00:41:02.619Z,7.55
2023-05-20T00:41:14.280Z,7.55
2023-05-20T00:41:26.471Z,7.55
2023-05-20T00:41:37.160Z,7.54
2023-05-20T00:41:48.930Z,7.52
2023-05-20T00:41:59.632Z,7.54
2023-05-20T00:42:10.455Z,7.54
2023-05-20T00:42:23.117Z,7.54
2023-05-20T00:42:34.836Z,7.52
2023-05-20T00:42:45.574Z,7.51
2023-05-20T00:42:57.306Z,7.51
2023-05-20T00:43:09.035Z,7.51
2023-05-20T00:43:19.740Z,7.50
2023-05-20T00:43:32.154Z,7.50
2023-05-20T00:43:44.535Z,7.48
2023-05-20T00:43:55.262Z,7.48
2023-05-20T00:44:05.941Z,7.48
2023-05-20T00:44:16.647Z,7.48
2023-05-20T00:44:28.873Z,7.48
2023-05-20T00:44:39.571Z,7.47
2023-05-20T00:44:50.305Z,7.47
2023-05-20T00:45:01.092Z,7.47
2023-05-20T00:45:13.510Z,7.45
2023-05-20T00:45:24.221Z,7.44
2023-05-20T00:45:35.321Z,7.44
2023-05-20T00:45:47.348Z,7.42
2023-05-20T00:45:59.044Z,7.44
2023-05-20T00:46:12.238Z,7.42
2023-05-20T00:46:24.050Z,7.42
2023-05-20T00:46:34.867Z,7.41
2023-05-20T00:46:46.585Z,7.39
2023-05-20T00:46:59.003Z,7.41
2023-05-20T00:47:10.712Z,7.39
2023-05-20T00:47:23.147Z,7.37
2023-05-20T00:47:33.885Z,7.39
2023-05-20T00:47:44.660Z,7.39
2023-05-20T00:47:56.480Z,7.39
2023-05-20T00:48:08.236Z,7.37
2023-05-20T00:48:19.045Z,7.37
2023-05-20T00:48:30.771Z,7.37
2023-05-20T00:48:42.466Z,7.36
2023-05-20T00:48:54.155Z,7.37
2023-05-20T00:49:04.934Z,7.34
2023-05-20T00:49:16.606Z,7.33
2023-05-20T00:49:27.288Z,7.34
2023-05-20T00:49:39.736Z,7.34
2023-05-20T00:49:50.673Z,7.34
2023-05-20T00:50:01.355Z,7.34
2023-05-20T00:50:12.107Z,7.34
2023-05-20T00:50:24.593Z,7.34
2023-05-20T00:50:35.273Z,7.33
2023-05-20T00:50:48.444Z,7.33
2023-05-20T00:50:59.243Z,7.32
2023-05-20T00:51:12.396Z,7.33
2023-05-20T00:51:23.195Z,7.32
2023-05-20T00:51:33.883Z,7.32
2023-05-20T00:51:44.597Z,7.32
2023-05-20T00:51:55.352Z,7.32
2023-05-20T00:52:08.945Z,7.32
2023-05-20T00:52:19.660Z,7.30
2023-05-20T00:52:32.850Z,7.32
2023-05-20T00:52:45.313Z,7.32
2023-05-20T00:52:56.048Z,7.30
2023-05-20T00:53:09.225Z,7.32
2023-05-20T00:53:21.648Z,7.32
2023-05-20T00:53:33.317Z,7.30
2023-05-20T00:53:45.009Z,7.33
2023-05-20T00:53:58.261Z,7.32
2023-05-20T00:54:09.957Z,7.30
2023-05-20T00:54:23.120Z,7.32
2023-05-20T00:54:34.786Z,7.32
2023-05-20T00:54:46.459Z,7.30
2023-05-20T00:54:58.739Z,7.30
2023-05-20T00:55:11.132Z,7.32
2023-05-20T00:55:23.557Z,7.30
2023-05-20T00:55:34.376Z,7.32
2023-05-20T00:55:47.662Z,7.30
2023-05-20T00:55:58.376Z,7.32
2023-05-20T00:56:11.321Z,7.30
2023-05-20T00:56:23.734Z,7.30
2023-05-20T00:56:34.455Z,7.32
2023-05-20T00:56:45.127Z,7.30
2023-05-20T00:56:57.839Z,7.32
2023-05-20T00:57:08.544Z,7.32
2023-05-20T00:57:21.230Z,7.29
2023-05-20T00:57:32.989Z,7.32
2023-05-20T00:57:45.365Z,7.30
2023-05-20T00:57:57.783Z,7.30
2023-05-20T00:58:08.500Z,7.32
2023-05-20T00:58:19.223Z,7.32
2023-05-20T00:58:29.917Z,7.32
2023-05-20T00:58:41.593Z,7.33
2023-05-20T00:58:52.273Z,7.33
2023-05-20T00:59:03.973Z,7.32
2023-05-20T00:59:15.877Z,7.33
2023-05-20T00:59:26.616Z,7.33
2023-05-20T00:59:37.322Z,7.33
2023-05-20T00:59:48.018Z,7.34
2023-05-20T00:59:58.738Z,7.33
2023-05-20T01:00:09.420Z,7.34
2023-05-20T01:00:20.130Z,7.34
2023-05-20T01:00:30.825Z,7.34
2023-05-20T01:00:43.764Z,7.36
2023-05-20T01:00:54.422Z,7.36
2023-05-20T01:01:05.158Z,7.36
2023-05-20T01:01:16.971Z,7.37
2023-05-20T01:01:27.790Z,7.37
2023-05-20T01:01:40.952Z,7.37
2023-05-20T01:01:53.019Z,7.39
2023-05-20T01:02:03.791Z,7.37
2023-05-20T01:02:15.454Z,7.37
2023-05-20T01:02:28.827Z,7.39
2023-05-20T01:02:39.748Z,7.39
2023-05-20T01:02:53.080Z,7.39
2023-05-20T01:03:04.019Z,7.39
2023-05-20T01:03:14.935Z,7.37
2023-05-20T01:03:25.954Z,7.41
2023-05-20T01:03:37.895Z,7.39
2023-05-20T01:03:48.787Z,7.39
2023-05-20T01:04:01.276Z,7.39
2023-05-20T01:04:11.967Z,7.39
2023-05-20T01:04:24.228Z,7.39
2023-05-20T01:04:34.979Z,7.39
2023-05-20T01:04:46.721Z,7.39
2023-05-20T01:04:57.457Z,7.39
2023-05-20T01:05:09.638Z,7.41
2023-05-20T01:05:21.339Z,7.39
2023-05-20T01:05:32.165Z,7.39
2023-05-20T01:05:44.623Z,7.39
2023-05-20T01:05:56.784Z,7.37
2023-05-20T01:06:07.541Z,7.39
2023-05-20T01:06:19.986Z,7.39
2023-05-20T01:06:32.408Z,7.39
2023-05-20T01:06:45.124Z,7.39
2023-05-20T01:06:56.195Z,7.39
2023-05-20T01:07:07.099Z,7.41
2023-05-20T01:07:18.827Z,7.37
2023-05-20T01:07:29.585Z,7.39
2023-05-20T01:07:40.302Z,7.39
2023-05-20T01:07:52.059Z,7.39
2023-05-20T01:08:02.822Z,7.41
2023-05-20T01:08:14.528Z,7.37
2023-05-20T01:08:25.271Z,7.41
2023-05-20T01:08:36.031Z,7.39
2023-05-20T01:08:46.789Z,7.41
2023-05-20T01:08:57.450Z,7.41
2023-05-20T01:09:08.168Z,7.41
2023-05-20T01:09:20.630Z,7.42
2023-05-20T01:09:32.307Z,7.41
2023-05-20T01:09:43.036Z,7.41
2023-05-20T01:09:54.731Z,7.42
2023-05-20T01:10:07.162Z,7.42
2023-05-20T01:10:18.900Z,7.42
2023-05-20T01:10:29.592Z,7.45
2023-05-20T01:10:41.275Z,7.45
2023-05-20T01:10:52.994Z,7.44
2023-05-20T01:11:05.234Z,7.44
2023-05-20T01:11:16.966Z,7.44
2023-05-20T01:11:27.701Z,7.45
2023-05-20T01:11:39.433Z,7.45
2023-05-20T01:11:51.139Z,7.45
2023-05-20T01:12:04.019Z,7.45
2023-05-20T01:12:14.760Z,7.47
2023-05-20T01:12:26.450Z,7.47
2023-05-20T01:12:38.940Z,7.48
2023-05-20T01:12:51.182Z,7.47
2023-05-20T01:13:04.386Z,7.48
2023-05-20T01:13:17.424Z,7.50
2023-05-20T01:13:29.884Z,7.50
2023-05-20T01:13:40.668Z,7.48
2023-05-20T01:13:53.045Z,7.50
2023-05-20T01:14:03.829Z,7.50
2023-05-20T01:14:15.759Z,7.50
2023-05-20T01:14:26.515Z,7.50
2023-05-20T01:14:39.231Z,7.50
2023-05-20T01:14:51.921Z,7.50
2023-05-20T01:15:02.670Z,7.50
2023-05-20T01:15:15.060Z,7.50
2023-05-20T01:15:25.799Z,7.52
2023-05-20T01:15:36.858Z,7.52
2023-05-20T01:15:48.532Z,7.52
2023-05-20T01:16:00.763Z,7.52
2023-05-20T01:16:12.451Z,7.52
2023-05-20T01:16:25.453Z,7.54
2023-05-20T01:16:37.324Z,7.52
2023-05-20T01:16:49.750Z,7.52
2023-05-20T01:17:01.456Z,7.54
2023-05-20T01:17:13.127Z,7.54
2023-05-20T01:17:25.612Z,7.55
2023-05-20T01:17:37.318Z,7.55
2023-05-20T01:17:48.029Z,7.55
2023-05-20T01:18:01.825Z,7.55
2023-05-20T01:18:13.644Z,7.57
2023-05-20T01:18:26.103Z,7.57
2023-05-20T01:18:36.922Z,7.55
2023-05-20T01:18:47.641Z,7.55
2023-05-20T01:18:58.398Z,7.57
2023-05-20T01:19:09.201Z,7.57
2023-05-20T01:19:20.958Z,7.57
2023-05-20T01:19:33.724Z,7.58
2023-05-20T01:19:44.499Z,7.60
2023-05-20T01:19:55.204Z,7.58
2023-05-20T01:20:05.925Z,7.58
2023-05-20T01:20:16.649Z,7.58
2023-05-20T01:20:27.437Z,7.58
2023-05-20T01:20:39.137Z,7.60
2023-05-20T01:20:49.920Z,7.58
2023-05-20T01:21:01.641Z,7.57
2023-05-20T01:21:12.380Z,7.58
2023-05-20T01:21:24.557Z,7.58
2023-05-20T01:21:35.259Z,7.58
2023-05-20T01:21:48.940Z,7.58
2023-05-20T01:22:02.093Z,7.58
2023-05-20T01:22:12.875Z,7.60
2023-05-20T01:22:24.597Z,7.58
2023-05-20T01:22:37.034Z,7.58
2023-05-20T01:22:47.705Z,7.57
2023-05-20T01:22:59.913Z,7.58
2023-05-20T01:23:11.852Z,7.58
2023-05-20T01:23:26.544Z,7.57
2023-05-20T01:23:39.011Z,7.58
2023-05-20T01:23:49.702Z,7.58
2023-05-20T01:24:00.428Z,7.58
2023-05-20T01:24:12.726Z,7.57
2023-05-20T01:24:25.122Z,7.58
2023-05-20T01:24:35.836Z,7.60
2023-05-20T01:24:47.539Z,7.58
2023-05-20T01:25:00.002Z,7.58
2023-05-20T01:25:10.689Z,7.60
2023-05-20T01:25:21.375Z,7.60
2023-05-20T01:25:32.224Z,7.58
2023-05-20T01:25:44.040Z,7.58
2023-05-20T01:25:54.730Z,7.58
2023-05-20T01:26:05.523Z,7.58
2023-05-20T01:26:16.328Z,7.60
2023-05-20T01:26:27.356Z,7.58
2023-05-20T01:26:38.096Z,7.58
2023-05-20T01:26:48.860Z,7.58
2023-05-20T01:26:59.571Z,7.58
2023-05-20T01:27:11.270Z,7.57
2023-05-20T01:27:24.185Z,7.57
2023-05-20T01:27:35.980Z,7.57
2023-05-20T01:27:47.663Z,7.58
2023-05-20T01:27:59.378Z,7.57
2023-05-20T01:28:10.119Z,7.57
2023-05-20T01:28:22.521Z,7.57
2023-05-20T01:28:34.298Z,7.55
2023-05-20T01:28:45.000Z,7.55
2023-05-20T01:28:56.705Z,7.55
2023-05-20T01:29:07.406Z,7.55
2023-05-20T01:29:18.123Z,7.54
2023-05-20T01:29:28.888Z,7.54
2023-05-20T01:29:39.610Z,7.52
2023-05-20T01:29:51.311Z,7.52
2023-05-20T01:30:03.040Z,7.52
2023-05-20T01:30:13.747Z,7.52
2023-05-20T01:30:25.428Z,7.51
2023-05-20T01:30:36.130Z,7.52
2023-05-20T01:30:46.937Z,7.52
2023-05-20T01:30:58.640Z,7.50
2023-05-20T01:31:09.402Z,7.50
2023-05-20T01:31:21.880Z,7.51
2023-05-20T01:31:34.279Z,7.50
2023-05-20T01:31:46.012Z,7.48
2023-05-20T01:31:58.486Z,7.48
2023-05-20T01:32:10.192Z,7.50
2023-05-20T01:32:21.987Z,7.48
2023-05-20T01:32:32.772Z,7.48
2023-05-20T01:32:46.478Z,7.48
2023-05-20T01:32:57.328Z,7.50
2023-05-20T01:33:08.081Z,7.47
2023-05-20T01:33:18.789Z,7.50
2023-05-20T01:33:31.996Z,7.47
2023-05-20T01:33:44.440Z,7.47
2023-05-20T01:33:56.860Z,7.48
2023-05-20T01:34:08.601Z,7.47
2023-05-20T01:34:20.324Z,7.45
2023-05-20T01:34:31.058Z,7.45
2023-05-20T01:34:44.227Z,7.47
2023-05-20T01:34:55.945Z,7.47
2023-05-20T01:35:06.739Z,7.45
2023-05-20T01:35:17.432Z,7.47
2023-05-20T01:35:28.165Z,7.47
2023-05-20T01:35:39.953Z,7.44
2023-05-20T01:35:50.674Z,7.45
2023-05-20T01:36:02.409Z,7.44
2023-05-20T01:36:14.838Z,7.44
2023-05-20T01:36:25.571Z,7.42
2023-05-20T01:36:37.269Z,7.42
2023-05-20T01:36:47.991Z,7.42
2023-05-20T01:36:58.755Z,7.41
2023-05-20T01:37:10.459Z,7.41
2023-05-20T01:37:22.839Z,7.41
2023-05-20T01:37:37.537Z,7.41
2023-05-20T01:37:50.007Z,7.41
2023-05-20T01:38:02.964Z,7.41
2023-05-20T01:38:15.392Z,7.37
2023-05-20T01:38:28.561Z,7.37
2023-05-20T01:38:41.264Z,7.37
2023-05-20T01:38:53.957Z,7.37
2023-05-20T01:39:04.701Z,7.37
2023-05-20T01:39:15.453Z,7.37
2023-05-20T01:39:27.099Z,7.37
2023-05-20T01:39:37.843Z,7.37
2023-05-20T01:39:48.569Z,7.36
2023-05-20T01:39:59.294Z,7.37
2023-05-20T01:40:12.520Z,7.37
2023-05-20T01:40:23.255Z,7.37
2023-05-20T01:40:35.486Z,7.39
2023-05-20T01:40:46.183Z,7.37
2023-05-20T01:40:56.927Z,7.39
2023-05-20T01:41:08.636Z,7.39
2023-05-20T01:41:19.348Z,7.41
2023-05-20T01:41:30.049Z,7.41
2023-05-20T01:41:41.780Z,7.41
2023-05-20T01:41:52.538Z,7.42
2023-05-20T01:42:03.276Z,7.44
2023-05-20T01:42:14.067Z,7.45
2023-05-20T01:42:27.164Z,7.47
2023-05-20T01:42:41.380Z,7.48
2023-05-20T01:42:54.570Z,7.50
2023-05-20T01:43:06.289Z,7.51
2023-05-20T01:43:19.154Z,7.52
2023-05-20T01:43:30.845Z,7.52
2023-05-20T01:43:42.554Z,7.52
2023-05-20T01:43:55.748Z,7.55
2023-05-20T01:44:07.482Z,7.55
2023-05-20T01:44:18.273Z,7.55
2023-05-20T01:44:30.680Z,7.57
2023-05-20T01:44:42.401Z,7.57
2023-05-20T01:44:53.160Z,7.57
2023-05-20T01:45:03.938Z,7.57
2023-05-20T01:45:14.679Z,7.55
2023-05-20T01:45:26.404Z,7.58
2023-05-20T01:45:37.240Z,7.55
2023-05-20T01:45:48.918Z,7.57
2023-05-20T01:46:01.589Z,7.57
2023-05-20T01:46:12.365Z,7.58
2023-05-20T01:46:23.022Z,7.58
2023-05-20T01:46:33.808Z,7.57
2023-05-20T01:46:45.536Z,7.57
2023-05-20T01:46:56.296Z,7.58
2023-05-20T01:47:07.139Z,7.58
2023-05-20T01:47:19.588Z,7.57
2023-05-20T01:47:31.362Z,7.58
2023-05-20T01:47:42.127Z,7.57
2023-05-20T01:47:54.682Z,7.58
2023-05-20T01:48:07.211Z,7.58
2023-05-20T01:48:17.870Z,7.58
2023-05-20T01:48:30.296Z,7.58
2023-05-20T01:48:41.053Z,7.57
2023-05-20T01:48:53.238Z,7.55
2023-05-20T01:49:05.720Z,7.55
2023-05-20T01:49:18.170Z,7.55
2023-05-20T01:49:28.977Z,7.55
2023-05-20T01:49:39.754Z,7.55
2023-05-20T01:49:51.396Z,7.52
2023-05-20T01:50:03.156Z,7.54
2023-05-20T01:50:13.893Z,7.52
2023-05-20T01:50:25.594Z,7.51
2023-05-20T01:50:38.514Z,7.52
2023-05-20T01:50:50.962Z,7.51
2023-05-20T01:51:03.393Z,7.51
2023-05-20T01:51:15.095Z,7.50
2023-05-20T01:51:25.762Z,7.51
2023-05-20T01:51:38.942Z,7.50
2023-05-20T01:51:50.645Z,7.50
2023-05-20T01:52:01.451Z,7.50
2023-05-20T01:52:13.891Z,7.50
2023-05-20T01:52:26.295Z,7.48
2023-05-20T01:52:37.112Z,7.48
2023-05-20T01:52:49.496Z,7.47
2023-05-20T01:53:00.180Z,7.47
2023-05-20T01:53:10.945Z,7.48
2023-05-20T01:53:23.153Z,7.47
2023-05-20T01:53:35.838Z,7.47
2023-05-20T01:53:47.514Z,7.47
2023-05-20T01:53:58.254Z,7.47
2023-05-20T01:54:12.493Z,7.47
2023-05-20T01:54:24.917Z,7.45
2023-05-20T01:54:36.693Z,7.45
2023-05-20T01:54:47.377Z,7.45
2023-05-20T01:54:58.139Z,7.45
2023-05-20T01:55:08.889Z,7.45
2023-05-20T01:55:21.401Z,7.44
2023-05-20T01:55:34.056Z,7.45
2023-05-20T01:55:45.871Z,7.44
2023-05-20T01:55:58.545Z,7.42
2023-05-20T01:56:10.762Z,7.42
2023-05-20T01:56:21.521Z,7.42
2023-05-20T01:56:32.389Z,7.42
2023-05-20T01:56:43.122Z,7.42
2023-05-20T01:56:53.829Z,7.42
2023-05-20T01:57:04.618Z,7.41
2023-05-20T01:57:15.318Z,7.41
2023-05-20T01:57:26.066Z,7.41
2023-05-20T01:57:38.461Z,7.42
2023-05-20T01:57:50.419Z,7.41
2023-05-20T01:58:02.127Z,7.41
2023-05-20T01:58:12.859Z,7.41
2023-05-20T01:58:26.523Z,7.39
2023-05-20T01:58:39.725Z,7.39
2023-05-20T01:58:52.120Z,7.39
2023-05-20T01:59:04.274Z,7.39
2023-05-20T01:59:15.017Z,7.41
2023-05-20T01:59:26.813Z,7.39
2023-05-20T01:59:38.474Z,7.37
2023-05-20T01:59:49.264Z,7.37
2023-05-20T02:00:01.018Z,7.36
2023-05-20T02:00:11.742Z,7.37
2023-05-20T02:00:22.442Z,7.36
2023-05-20T02:00:35.442Z,7.37
2023-05-20T02:00:46.199Z,7.36
2023-05-20T02:00:58.615Z,7.36
2023-05-20T02:01:09.357Z,7.36
2023-05-20T02:01:21.145Z,7.34
2023-05-20T02:01:31.944Z,7.34
2023-05-20T02:01:42.737Z,7.34
2023-05-20T02:01:53.493Z,7.34
2023-05-20T02:02:05.466Z,7.33
2023-05-20T02:02:17.928Z,7.34
2023-05-20T02:02:30.443Z,7.34
2023-05-20T02:02:41.421Z,7.33
2023-05-20T02:02:54.654Z,7.33
2023-05-20T02:03:05.473Z,7.33
2023-05-20T02:03:16.236Z,7.33
2023-05-20T02:03:28.688Z,7.32
2023-05-20T02:03:41.070Z,7.33
2023-05-20T02:03:53.462Z,7.32
2023-05-20T02:04:04.194Z,7.32
2023-05-20T02:04:14.945Z,7.33
2023-05-20T02:04:28.146Z,7.32
2023-05-20T02:04:40.593Z,7.32
2023-05-20T02:04:53.736Z,7.30
2023-05-20T02:05:06.176Z,7.30
2023-05-20T02:05:16.881Z,7.30
2023-05-20T02:05:28.649Z,7.32
2023-05-20T02:05:40.389Z,7.32
2023-05-20T02:05:52.816Z,7.30
2023-05-20T02:06:05.044Z,7.30
2023-05-20T02:06:16.855Z,7.29
2023-05-20T02:06:27.633Z,7.30
2023-05-20T02:06:39.370Z,7.29
2023-05-20T02:06:50.131Z,7.32
2023-05-20T02:07:00.889Z,7.29
2023-05-20T02:07:13.301Z,7.30
2023-05-20T02:07:24.992Z,7.30
2023-05-20T02:07:35.722Z,7.30
2023-05-20T02:07:46.421Z,7.30
2023-05-20T02:07:58.838Z,7.30
2023-05-20T02:08:10.524Z,7.30
2023-05-20T02:08:22.253Z,7.30
2023-05-20T02:08:32.981Z,7.30
2023-05-20T02:08:45.660Z,7.30
2023-05-20T02:08:58.077Z,7.30
2023-05-20T02:09:08.836Z,7.30
2023-05-20T02:09:19.570Z,7.30
2023-05-20T02:09:31.244Z,7.29
2023-05-20T02:09:43.637Z,7.29
2023-05-20T02:09:54.363Z,7.30
2023-05-20T02:10:05.106Z,7.29
2023-05-20T02:10:15.802Z,7.29
2023-05-20T02:10:29.572Z,7.29
2023-05-20T02:10:41.230Z,7.29
2023-05-20T02:10:51.987Z,7.29
2023-05-20T02:11:03.646Z,7.29
2023-05-20T02:11:14.464Z,7.29
2023-05-20T02:11:25.199Z,7.27
2023-05-20T02:11:35.963Z,7.29
2023-05-20T02:11:48.131Z,7.27
2023-05-20T02:11:58.861Z,7.29
2023-05-20T02:12:11.263Z,7.27
2023-05-20T02:12:23.433Z,7.27
2023-05-20T02:12:35.850Z,7.27
2023-05-20T02:12:46.580Z,7.27
2023-05-20T02:12:57.319Z,7.27
2023-05-20T02:13:09.716Z,7.27
2023-05-20T02:13:22.111Z,7.29
2023-05-20T02:13:32.807Z,7.27
2023-05-20T02:13:46.029Z,7.27
2023-05-20T02:13:58.453Z,7.27
2023-05-20T02:14:09.187Z,7.29
2023-05-20T02:14:20.129Z,7.29
2023-05-20T02:14:31.785Z,7.27
2023-05-20T02:14:42.560Z,7.29
2023-05-20T02:14:55.270Z,7.30
2023-05-20T02:15:07.962Z,7.29
2023-05-20T02:15:20.602Z,7.30
2023-05-20T02:15:31.366Z,7.29
2023-05-20T02:15:42.058Z,7.29
2023-05-20T02:15:52.786Z,7.30
2023-05-20T02:16:03.543Z,7.29
2023-05-20T02:16:15.728Z,7.29
2023-05-20T02:16:28.521Z,7.29
2023-05-20T02:16:39.308Z,7.29
2023-05-20T02:16:51.772Z,7.29
2023-05-20T02:17:02.477Z,7.29
2023-05-20T02:17:13.269Z,7.29
2023-05-20T02:17:23.990Z,7.27
2023-05-20T02:17:34.818Z,7.29
2023-05-20T02:17:45.580Z,7.29
2023-05-20T02:17:56.366Z,7.27
2023-05-20T02:18:07.087Z,7.26
2023-05-20T02:18:19.544Z,7.27
2023-05-20T02:18:31.196Z,7.27
2023-05-20T02:18:44.208Z,7.29
2023-05-20T02:18:56.917Z,7.27
2023-05-20T02:19:09.337Z,7.27
2023-05-20T02:19:21.085Z,7.29
2023-05-20T02:19:33.757Z,7.27
2023-05-20T02:19:44.494Z,7.27
2023-05-20T02:19:57.189Z,7.29
2023-05-20T02:20:07.971Z,7.27
2023-05-20T02:20:18.686Z,7.29
2023-05-20T02:20:29.381Z,7.27
2023-05-20T02:20:41.560Z,7.29
2023-05-20T02:20:54.027Z,7.29
2023-05-20T02:21:06.526Z,7.29
2023-05-20T02:21:17.373Z,7.29
2023-05-20T02:21:29.114Z,7.30
2023-05-20T02:21:42.294Z,7.30
2023-05-20T02:21:53.036Z,7.29
2023-05-20T02:22:05.444Z,7.30
2023-05-20T02:22:16.124Z,7.30
2023-05-20T02:22:26.868Z,7.30
2023-05-20T02:22:37.595Z,7.30
2023-05-20T02:22:49.763Z,7.30
2023-05-20T02:23:02.970Z,7.32
2023-05-20T02:23:16.135Z,7.30
2023-05-20T02:23:27.831Z,7.30
2023-05-20T02:23:39.557Z,7.30
2023-05-20T02:23:52.745Z,7.30
2023-05-20T02:24:05.621Z,7.29
2023-05-20T02:24:16.381Z,7.30
2023-05-20T02:24:29.304Z,7.30
2023-05-20T02:24:40.043Z,7.32
2023-05-20T02:24:52.978Z,7.29
2023-05-20T02:25:03.686Z,7.32
2023-05-20T02:25:15.886Z,7.32
2023-05-20T02:25:28.333Z,7.32
2023-05-20T02:25:39.053Z,7.32
2023-05-20T02:25:49.754Z,7.32
2023-05-20T02:26:00.488Z,7.33
2023-05-20T02:26:11.242Z,7.33
2023-05-20T02:26:23.016Z,7.34
2023-05-20T02:26:35.177Z,7.33
2023-05-20T02:26:47.607Z,7.34
2023-05-20T02:26:59.350Z,7.34
2023-05-20T02:27:10.196Z,7.36
2023-05-20T02:27:21.885Z,7.36
2023-05-20T02:27:32.628Z,7.34
2023-05-20T02:27:44.335Z,7.34
2023-05-20T02:27:56.077Z,7.36
2023-05-20T02:28:06.787Z,7.37
2023-05-20T02:28:18.486Z,7.37
2023-05-20T02:28:29.238Z,7.37
2023-05-20T02:28:41.621Z,7.39
2023-05-20T02:28:54.060Z,7.39
2023-05-20T02:29:04.748Z,7.39
2023-05-20T02:29:17.009Z,7.39
2023-05-20T02:29:29.398Z,7.39
2023-05-20T02:29:41.123Z,7.41
2023-05-20T02:29:52.804Z,7.41
2023-05-20T02:30:04.511Z,7.42
2023-05-20T02:30:16.213Z,7.44
2023-05-20T02:30:27.924Z,7.44
2023-05-20T02:30:40.377Z,7.45
2023-05-20T02:30:51.036Z,7.45
2023-05-20T02:31:01.793Z,7.45
2023-05-20T02:31:12.799Z,7.47
2023-05-20T02:31:23.588Z,7.48
2023-05-20T02:31:35.759Z,7.48
2023-05-20T02:31:48.155Z,7.50
2023-05-20T02:32:00.608Z,7.51
2023-05-20T02:32:13.753Z,7.51
2023-05-20T02:32:25.953Z,7.51
2023-05-20T02:32:36.823Z,7.52
2023-05-20T02:32:48.582Z,7.52
2023-05-20T02:32:59.346Z,7.51
2023-05-20T02:33:11.060Z,7.54
2023-05-20T02:33:22.787Z,7.52
2023-05-20T02:33:34.767Z,7.54
2023-05-20T02:33:45.511Z,7.54
2023-05-20T02:33:56.271Z,7.54
2023-05-20T02:34:08.549Z,7.55
2023-05-20T02:34:21.074Z,7.55